createdAt,value
2022-11-06T00:06:00.948Z,9.00
2022-11-06T00:16:04.794Z,8.90
2022-11-06T00:26:08.558Z,8.90
2022-11-06T00:36:13.554Z,8.80
2022-11-06T00:46:15.823Z,8.70
2022-11-06T00:56:21.008Z,8.70
2022-11-06T01:06:26.058Z,8.60
2022-11-06T01:16:28.948Z,8.50
2022-11-06T01:26:38.183Z,8.30
2022-11-06T01:36:41.139Z,8.10
2022-11-06T01:46:42.755Z,8.10
2022-11-06T01:56:46.073Z,8.10
2022-11-06T02:06:48.775Z,8.00
2022-11-06T02:17:03.036Z,7.90
2022-11-06T02:27:19.724Z,7.90
2022-11-06T02:37:28.295Z,7.90
2022-11-06T02:47:31.994Z,7.70
2022-11-06T02:57:37.888Z,7.60
2022-11-06T03:07:52.637Z,7.50
2022-11-06T03:18:09.979Z,7.50
2022-11-06T03:28:34.678Z,7.40
2022-11-06T03:38:56.654Z,7.30
2022-11-06T03:49:02.309Z,7.20
2022-11-06T03:59:07.043Z,7.10
2022-11-06T04:09:30.226Z,7.10
2022-11-06T04:19:31.864Z,6.70
2022-11-06T04:30:01.918Z,6.70
2022-11-06T04:40:09.426Z,6.60
2022-11-06T04:50:13.444Z,6.60
2022-11-06T05:00:16.547Z,6.60
2022-11-06T05:10:18.201Z,6.60
2022-11-06T05:20:19.824Z,6.60
2022-11-06T05:30:22.018Z,6.50
2022-11-06T05:40:23.744Z,6.50
2022-11-06T05:50:25.434Z,6.50
2022-11-06T06:00:27.091Z,6.40
2022-11-06T06:10:28.758Z,6.50
2022-11-06T06:20:30.389Z,6.40
2022-11-06T06:30:32.074Z,6.70
2022-11-06T06:40:33.736Z,6.80
2022-11-06T06:50:35.368Z,6.90
2022-11-06T07:00:37.194Z,6.90
2022-11-06T07:10:38.884Z,6.90
2022-11-06T07:20:40.535Z,6.90
2022-11-06T07:30:42.155Z,7.00
2022-11-06T07:40:43.813Z,7.10
2022-11-06T07:50:45.460Z,7.10
2022-11-06T08:00:51.918Z,7.10
2022-11-06T08:10:53.916Z,7.20
2022-11-06T08:20:55.664Z,7.40
2022-11-06T08:30:57.304Z,7.40
2022-11-06T08:40:58.964Z,7.90
2022-11-06T08:51:00.979Z,8.10
2022-11-06T09:01:02.711Z,8.50
2022-11-06T09:11:07.804Z,8.70
2022-11-06T09:21:09.482Z,9.00
2022-11-06T09:31:11.166Z,9.70
2022-11-06T09:41:45.120Z,9.70
2022-11-06T09:51:59.644Z,10.20
2022-11-06T10:02:01.892Z,10.50
2022-11-06T10:12:38.380Z,10.60
2022-11-06T10:22:44.924Z,10.70
2022-11-06T10:33:20.144Z,10.90
2022-11-06T10:43:45.383Z,11.20
2022-11-06T10:54:09.270Z,11.50
2022-11-06T11:04:11.207Z,11.50
2022-11-06T11:14:15.172Z,11.60
2022-11-06T11:24:16.868Z,11.70
2022-11-06T11:34:25.536Z,11.80
2022-11-06T11:44:27.177Z,12.20
2022-11-06T11:54:33.852Z,12.50
2022-11-06T12:04:40.162Z,12.80
2022-11-06T12:14:41.821Z,13.20
2022-11-06T12:24:52.984Z,13.20
2022-11-06T12:35:23.919Z,13.30
2022-11-06T12:45:35.408Z,13.30
2022-11-06T12:56:02.630Z,13.10
2022-11-06T13:06:22.508Z,12.80
2022-11-06T13:16:32.480Z,12.50
2022-11-06T13:26:40.389Z,12.40
2022-11-06T13:36:42.761Z,12.20
2022-11-06T13:47:05.343Z,12.00
2022-11-06T13:57:49.477Z,11.90
2022-11-06T14:07:52.409Z,11.60
2022-11-06T14:17:59.596Z,11.50
2022-11-06T14:28:01.209Z,11.50
2022-11-06T14:38:26.925Z,11.40
2022-11-06T14:48:42.201Z,11.20
2022-11-06T14:59:20.428Z,11.20
2022-11-06T15:09:24.871Z,11.10
2022-11-06T15:19:30.837Z,11.10
2022-11-06T15:29:37.299Z,11.10
2022-11-06T15:39:41.461Z,11.10
2022-11-06T15:49:43.091Z,10.90
2022-11-06T15:59:48.170Z,10.90
2022-11-06T16:09:52.845Z,10.80
2022-11-06T16:20:00.699Z,10.70
2022-11-06T16:30:03.916Z,10.60
2022-11-06T16:40:26.654Z,10.40
2022-11-06T16:50:46.403Z,10.30
2022-11-06T17:00:58.825Z,10.20
2022-11-06T17:11:16.798Z,10.20
2022-11-06T17:21:23.660Z,10.20
2022-11-06T17:31:26.912Z,10.20
2022-11-06T17:41:32.152Z,10.20
2022-11-06T17:51:52.879Z,10.20
2022-11-06T18:01:55.203Z,10.10
2022-11-06T18:11:58.218Z,10.20
2022-11-06T18:22:06.373Z,10.20
2022-11-06T18:32:08.447Z,10.20
2022-11-06T18:42:10.094Z,10.20
2022-11-06T18:52:11.737Z,10.30
2022-11-06T19:02:13.503Z,10.30
2022-11-06T19:12:15.216Z,10.30
2022-11-06T19:22:16.894Z,10.30
2022-11-06T19:32:18.537Z,10.20
2022-11-06T19:42:20.210Z,10.20
2022-11-06T19:52:44.165Z,10.20
2022-11-06T20:02:43.592Z,10.20
2022-11-06T20:12:45.935Z,10.20
2022-11-06T20:22:48.184Z,10.20
2022-11-06T20:32:49.919Z,10.30
2022-11-06T20:42:51.532Z,10.30
2022-11-06T20:52:53.182Z,10.30
2022-11-06T21:03:00.504Z,10.20
2022-11-06T21:13:03.306Z,10.20
2022-11-06T21:23:05.060Z,10.00
2022-11-06T21:33:06.687Z,10.00
2022-11-06T21:43:08.402Z,9.90
2022-11-06T21:53:29.753Z,9.90
2022-11-06T22:03:32.700Z,9.70
2022-11-06T22:13:34.583Z,9.40
2022-11-06T22:23:37.104Z,9.40
2022-11-06T22:33:39.299Z,9.30
2022-11-06T22:43:41.787Z,9.40
2022-11-06T22:53:43.817Z,9.60
2022-11-06T23:03:45.439Z,9.80
2022-11-06T23:13:47.059Z,10.00
2022-11-06T23:23:48.723Z,10.20
2022-11-06T23:33:50.359Z,10.30
2022-11-06T23:43:52.254Z,10.30
2022-11-06T23:53:54.537Z,10.50
